sensor_id;sensor_type;location;lat;lon;timestamp;P1;durP1;ratioP1;P2;durP2;ratioP2
65533;SDS011;53640;55.838;37.184;2023-09-19T00:00:46;5.20;;;4.28;;
65533;SDS011;53640;55.838;37.184;2023-09-19T00:03:13;5.50;;;4.00;;
65533;SDS011;53640;55.838;37.184;2023-09-19T00:05:39;5.95;;;4.43;;
65533;SDS011;53640;55.838;37.184;2023-09-19T00:08:05;5.93;;;4.38;;
65533;SDS011;53640;55.838;37.184;2023-09-19T00:10:33;5.45;;;4.25;;
65533;SDS011;53640;55.838;37.184;2023-09-19T00:13:02;4.95;;;4.00;;
65533;SDS011;53640;55.838;37.184;2023-09-19T00:15:38;4.57;;;4.07;;
65533;SDS011;53640;55.838;37.184;2023-09-19T00:18:06;5.35;;;4.32;;
65533;SDS011;53640;55.838;37.184;2023-09-19T00:20:37;4.70;;;4.13;;
65533;SDS011;53640;55.838;37.184;2023-09-19T00:23:04;3.75;;;3.40;;
65533;SDS011;53640;55.838;37.184;2023-09-19T00:25:31;4.90;;;4.00;;
65533;SDS011;53640;55.838;37.184;2023-09-19T00:28:04;3.97;;;3.58;;
65533;SDS011;53640;55.838;37.184;2023-09-19T00:30:33;3.53;;;3.22;;
65533;SDS011;53640;55.838;37.184;2023-09-19T00:33:00;4.07;;;3.60;;
65533;SDS011;53640;55.838;37.184;2023-09-19T00:35:27;6.50;;;3.78;;
65533;SDS011;53640;55.838;37.184;2023-09-19T00:37:53;3.95;;;3.20;;
65533;SDS011;53640;55.838;37.184;2023-09-19T00:40:21;5.53;;;3.35;;
65533;SDS011;53640;55.838;37.184;2023-09-19T00:42:48;9.80;;;5.30;;
65533;SDS011;53640;55.838;37.184;2023-09-19T00:45:16;6.60;;;5.50;;
65533;SDS011;53640;55.838;37.184;2023-09-19T00:47:49;8.90;;;6.25;;
65533;SDS011;53640;55.838;37.184;2023-09-19T00:50:18;6.13;;;5.28;;
65533;SDS011;53640;55.838;37.184;2023-09-19T00:52:47;5.28;;;4.20;;
65533;SDS011;53640;55.838;37.184;2023-09-19T00:55:15;7.07;;;5.32;;
65533;SDS011;53640;55.838;37.184;2023-09-19T00:57:45;6.05;;;4.78;;
65533;SDS011;53640;55.838;37.184;2023-09-19T01:00:13;11.48;;;6.07;;
65533;SDS011;53640;55.838;37.184;2023-09-19T01:02:45;9.25;;;6.45;;
65533;SDS011;53640;55.838;37.184;2023-09-19T01:05:12;6.20;;;5.57;;
65533;SDS011;53640;55.838;37.184;2023-09-19T01:07:39;6.93;;;5.53;;
65533;SDS011;53640;55.838;37.184;2023-09-19T01:10:14;9.15;;;6.93;;
65533;SDS011;53640;55.838;37.184;2023-09-19T01:12:51;9.15;;;6.13;;
65533;SDS011;53640;55.838;37.184;2023-09-19T01:21:07;12.60;;;7.40;;
65533;SDS011;53640;55.838;37.184;2023-09-19T01:24:00;12.38;;;7.18;;
65533;SDS011;53640;55.838;37.184;2023-09-19T01:31:57;8.18;;;6.00;;
65533;SDS011;53640;55.838;37.184;2023-09-19T01:34:47;9.20;;;6.55;;
65533;SDS011;53640;55.838;37.184;2023-09-19T01:37:18;13.52;;;7.22;;
65533;SDS011;53640;55.838;37.184;2023-09-19T01:39:46;12.18;;;7.85;;
65533;SDS011;53640;55.838;37.184;2023-09-19T01:42:28;13.00;;;7.72;;
65533;SDS011;53640;55.838;37.184;2023-09-19T01:45:08;11.63;;;7.70;;
65533;SDS011;53640;55.838;37.184;2023-09-19T01:47:49;11.40;;;7.63;;
65533;SDS011;53640;55.838;37.184;2023-09-19T01:50:38;13.00;;;7.35;;
65533;SDS011;53640;55.838;37.184;2023-09-19T01:53:15;11.02;;;6.30;;
65533;SDS011;53640;55.838;37.184;2023-09-19T01:55:49;8.60;;;5.55;;
65533;SDS011;53640;55.838;37.184;2023-09-19T02:00:55;6.15;;;4.93;;
65533;SDS011;53640;55.838;37.184;2023-09-19T02:03:24;6.53;;;4.70;;
65533;SDS011;53640;55.838;37.184;2023-09-19T02:05:53;7.35;;;5.18;;
65533;SDS011;53640;55.838;37.184;2023-09-19T02:08:20;7.90;;;4.80;;
65533;SDS011;53640;55.838;37.184;2023-09-19T02:10:51;10.90;;;6.07;;
65533;SDS011;53640;55.838;37.184;2023-09-19T02:13:19;9.93;;;5.63;;
65533;SDS011;53640;55.838;37.184;2023-09-19T02:15:47;8.00;;;4.95;;
65533;SDS011;53640;55.838;37.184;2023-09-19T02:18:13;6.18;;;4.93;;
65533;SDS011;53640;55.838;37.184;2023-09-19T02:20:41;8.70;;;5.95;;
65533;SDS011;53640;55.838;37.184;2023-09-19T02:23:09;8.88;;;6.38;;
65533;SDS011;53640;55.838;37.184;2023-09-19T02:25:36;10.35;;;7.07;;
65533;SDS011;53640;55.838;37.184;2023-09-19T02:28:03;12.48;;;7.32;;
65533;SDS011;53640;55.838;37.184;2023-09-19T02:30:31;10.23;;;7.20;;
65533;SDS011;53640;55.838;37.184;2023-09-19T02:32:58;15.98;;;7.10;;
65533;SDS011;53640;55.838;37.184;2023-09-19T02:35:28;8.57;;;5.90;;
65533;SDS011;53640;55.838;37.184;2023-09-19T02:37:54;7.95;;;5.55;;
65533;SDS011;53640;55.838;37.184;2023-09-19T02:40:20;13.07;;;7.90;;
65533;SDS011;53640;55.838;37.184;2023-09-19T02:42:54;8.43;;;6.00;;
65533;SDS011;53640;55.838;37.184;2023-09-19T02:45:22;8.98;;;5.45;;
65533;SDS011;53640;55.838;37.184;2023-09-19T02:47:49;7.00;;;5.13;;
65533;SDS011;53640;55.838;37.184;2023-09-19T02:50:16;7.50;;;5.75;;
65533;SDS011;53640;55.838;37.184;2023-09-19T02:52:44;6.93;;;5.18;;
65533;SDS011;53640;55.838;37.184;2023-09-19T02:55:17;6.30;;;5.25;;
65533;SDS011;53640;55.838;37.184;2023-09-19T02:57:45;10.63;;;6.32;;
65533;SDS011;53640;55.838;37.184;2023-09-19T03:00:13;8.88;;;6.50;;
65533;SDS011;53640;55.838;37.184;2023-09-19T03:02:39;10.90;;;7.70;;
65533;SDS011;53640;55.838;37.184;2023-09-19T03:05:07;7.78;;;5.90;;
65533;SDS011;53640;55.838;37.184;2023-09-19T03:07:34;8.98;;;5.57;;
65533;SDS011;53640;55.838;37.184;2023-09-19T03:10:05;10.00;;;6.32;;
65533;SDS011;53640;55.838;37.184;2023-09-19T03:12:33;9.63;;;6.50;;
65533;SDS011;53640;55.838;37.184;2023-09-19T03:15:00;9.05;;;6.90;;
65533;SDS011;53640;55.838;37.184;2023-09-19T03:17:30;10.68;;;7.78;;
65533;SDS011;53640;55.838;37.184;2023-09-19T03:19:56;15.85;;;8.82;;
65533;SDS011;53640;55.838;37.184;2023-09-19T03:22:23;14.15;;;9.18;;
65533;SDS011;53640;55.838;37.184;2023-09-19T03:24:50;15.93;;;8.77;;
65533;SDS011;53640;55.838;37.184;2023-09-19T03:27:16;14.65;;;9.43;;
65533;SDS011;53640;55.838;37.184;2023-09-19T03:29:43;10.82;;;7.75;;
65533;SDS011;53640;55.838;37.184;2023-09-19T03:32:10;17.73;;;9.18;;
65533;SDS011;53640;55.838;37.184;2023-09-19T03:34:37;15.63;;;8.90;;
65533;SDS011;53640;55.838;37.184;2023-09-19T03:37:09;23.48;;;9.77;;
65533;SDS011;53640;55.838;37.184;2023-09-19T03:39:37;13.60;;;8.90;;
65533;SDS011;53640;55.838;37.184;2023-09-19T03:42:04;15.48;;;9.02;;
65533;SDS011;53640;55.838;37.184;2023-09-19T03:44:34;18.25;;;8.40;;
65533;SDS011;53640;55.838;37.184;2023-09-19T03:47:00;12.15;;;7.68;;
65533;SDS011;53640;55.838;37.184;2023-09-19T03:49:27;12.02;;;7.70;;
65533;SDS011;53640;55.838;37.184;2023-09-19T03:51:53;11.38;;;7.43;;
65533;SDS011;53640;55.838;37.184;2023-09-19T03:54:20;8.85;;;6.55;;
65533;SDS011;53640;55.838;37.184;2023-09-19T03:56:46;10.45;;;6.47;;
65533;SDS011;53640;55.838;37.184;2023-09-19T03:59:13;8.80;;;6.43;;
65533;SDS011;53640;55.838;37.184;2023-09-19T04:01:39;7.22;;;5.25;;
65533;SDS011;53640;55.838;37.184;2023-09-19T04:04:07;9.18;;;6.75;;
65533;SDS011;53640;55.838;37.184;2023-09-19T04:06:35;12.27;;;6.43;;
65533;SDS011;53640;55.838;37.184;2023-09-19T04:09:02;10.43;;;6.72;;
65533;SDS011;53640;55.838;37.184;2023-09-19T04:11:29;14.30;;;9.02;;
65533;SDS011;53640;55.838;37.184;2023-09-19T04:13:57;16.40;;;11.02;;
65533;SDS011;53640;55.838;37.184;2023-09-19T04:16:23;14.55;;;10.20;;
65533;SDS011;53640;55.838;37.184;2023-09-19T04:18:49;16.27;;;9.77;;
65533;SDS011;53640;55.838;37.184;2023-09-19T04:21:15;17.63;;;11.45;;
65533;SDS011;53640;55.838;37.184;2023-09-19T04:23:42;19.48;;;12.07;;
65533;SDS011;53640;55.838;37.184;2023-09-19T04:26:08;17.67;;;12.70;;
65533;SDS011;53640;55.838;37.184;2023-09-19T04:28:35;23.40;;;13.38;;
65533;SDS011;53640;55.838;37.184;2023-09-19T04:31:04;21.30;;;13.18;;
65533;SDS011;53640;55.838;37.184;2023-09-19T04:33:30;20.92;;;13.40;;
65533;SDS011;53640;55.838;37.184;2023-09-19T04:35:56;18.42;;;12.52;;
65533;SDS011;53640;55.838;37.184;2023-09-19T04:38:23;21.08;;;12.65;;
65533;SDS011;53640;55.838;37.184;2023-09-19T04:40:49;22.05;;;13.27;;
65533;SDS011;53640;55.838;37.184;2023-09-19T04:43:16;19.10;;;13.15;;
65533;SDS011;53640;55.838;37.184;2023-09-19T04:45:42;17.50;;;12.20;;
65533;SDS011;53640;55.838;37.184;2023-09-19T04:48:09;19.52;;;13.13;;
65533;SDS011;53640;55.838;37.184;2023-09-19T04:50:36;18.77;;;12.60;;
65533;SDS011;53640;55.838;37.184;2023-09-19T04:53:02;20.98;;;13.48;;
65533;SDS011;53640;55.838;37.184;2023-09-19T04:55:30;18.73;;;13.20;;
65533;SDS011;53640;55.838;37.184;2023-09-19T04:57:58;17.55;;;12.70;;
65533;SDS011;53640;55.838;37.184;2023-09-19T05:00:24;17.20;;;12.07;;
65533;SDS011;53640;55.838;37.184;2023-09-19T05:02:56;19.30;;;11.73;;
65533;SDS011;53640;55.838;37.184;2023-09-19T05:05:23;17.30;;;11.32;;
65533;SDS011;53640;55.838;37.184;2023-09-19T05:07:51;21.10;;;13.13;;
65533;SDS011;53640;55.838;37.184;2023-09-19T05:10:21;22.95;;;15.52;;
65533;SDS011;53640;55.838;37.184;2023-09-19T05:12:47;18.83;;;13.23;;
65533;SDS011;53640;55.838;37.184;2023-09-19T05:15:16;17.95;;;13.05;;
65533;SDS011;53640;55.838;37.184;2023-09-19T05:17:49;19.85;;;13.75;;
65533;SDS011;53640;55.838;37.184;2023-09-19T05:20:17;15.98;;;11.20;;
65533;SDS011;53640;55.838;37.184;2023-09-19T05:23:04;18.85;;;11.75;;
65533;SDS011;53640;55.838;37.184;2023-09-19T05:25:35;19.17;;;12.93;;
65533;SDS011;53640;55.838;37.184;2023-09-19T05:28:03;19.08;;;13.25;;
65533;SDS011;53640;55.838;37.184;2023-09-19T05:30:32;24.17;;;14.40;;
65533;SDS011;53640;55.838;37.184;2023-09-19T05:32:59;26.67;;;15.20;;
65533;SDS011;53640;55.838;37.184;2023-09-19T05:35:26;18.52;;;13.88;;
65533;SDS011;53640;55.838;37.184;2023-09-19T05:37:53;22.75;;;13.70;;
65533;SDS011;53640;55.838;37.184;2023-09-19T05:40:21;18.75;;;13.18;;
65533;SDS011;53640;55.838;37.184;2023-09-19T05:42:48;26.92;;;15.20;;
65533;SDS011;53640;55.838;37.184;2023-09-19T05:45:16;21.92;;;15.07;;
65533;SDS011;53640;55.838;37.184;2023-09-19T05:47:48;23.00;;;14.15;;
65533;SDS011;53640;55.838;37.184;2023-09-19T05:50:15;18.77;;;12.52;;
65533;SDS011;53640;55.838;37.184;2023-09-19T05:52:42;30.08;;;18.90;;
65533;SDS011;53640;55.838;37.184;2023-09-19T05:55:11;26.27;;;15.63;;
65533;SDS011;53640;55.838;37.184;2023-09-19T05:57:37;26.42;;;17.02;;
65533;SDS011;53640;55.838;37.184;2023-09-19T06:00:09;22.75;;;14.90;;
65533;SDS011;53640;55.838;37.184;2023-09-19T06:02:40;23.27;;;15.15;;
65533;SDS011;53640;55.838;37.184;2023-09-19T06:05:07;24.05;;;15.18;;
65533;SDS011;53640;55.838;37.184;2023-09-19T06:07:36;21.83;;;14.57;;
65533;SDS011;53640;55.838;37.184;2023-09-19T06:10:03;28.15;;;16.17;;
65533;SDS011;53640;55.838;37.184;2023-09-19T06:12:37;22.23;;;14.68;;
65533;SDS011;53640;55.838;37.184;2023-09-19T06:15:11;25.20;;;13.82;;
65533;SDS011;53640;55.838;37.184;2023-09-19T06:17:45;17.70;;;11.73;;
65533;SDS011;53640;55.838;37.184;2023-09-19T06:20:14;22.27;;;13.60;;
65533;SDS011;53640;55.838;37.184;2023-09-19T06:22:42;19.13;;;12.05;;
65533;SDS011;53640;55.838;37.184;2023-09-19T06:25:10;24.25;;;14.00;;
65533;SDS011;53640;55.838;37.184;2023-09-19T06:27:38;27.27;;;14.85;;
65533;SDS011;53640;55.838;37.184;2023-09-19T06:30:08;27.33;;;13.68;;
65533;SDS011;53640;55.838;37.184;2023-09-19T06:32:37;28.38;;;14.43;;
65533;SDS011;53640;55.838;37.184;2023-09-19T06:35:04;27.48;;;14.82;;
65533;SDS011;53640;55.838;37.184;2023-09-19T06:37:34;26.38;;;13.70;;
65533;SDS011;53640;55.838;37.184;2023-09-19T06:40:01;31.55;;;15.73;;
65533;SDS011;53640;55.838;37.184;2023-09-19T06:42:27;23.48;;;13.25;;
65533;SDS011;53640;55.838;37.184;2023-09-19T06:44:55;31.10;;;16.67;;
65533;SDS011;53640;55.838;37.184;2023-09-19T06:47:23;20.63;;;11.70;;
65533;SDS011;53640;55.838;37.184;2023-09-19T06:49:51;20.85;;;13.35;;
65533;SDS011;53640;55.838;37.184;2023-09-19T06:52:18;20.42;;;12.38;;
65533;SDS011;53640;55.838;37.184;2023-09-19T06:54:45;25.80;;;13.52;;
65533;SDS011;53640;55.838;37.184;2023-09-19T06:57:11;24.23;;;12.68;;
65533;SDS011;53640;55.838;37.184;2023-09-19T06:59:38;21.10;;;12.85;;
65533;SDS011;53640;55.838;37.184;2023-09-19T07:02:08;22.00;;;12.63;;
65533;SDS011;53640;55.838;37.184;2023-09-19T07:04:35;19.63;;;11.80;;
65533;SDS011;53640;55.838;37.184;2023-09-19T07:07:01;16.65;;;11.20;;
65533;SDS011;53640;55.838;37.184;2023-09-19T07:09:27;23.08;;;13.90;;
65533;SDS011;53640;55.838;37.184;2023-09-19T07:11:54;25.33;;;12.50;;
65533;SDS011;53640;55.838;37.184;2023-09-19T07:14:20;16.70;;;10.38;;
65533;SDS011;53640;55.838;37.184;2023-09-19T07:16:46;12.90;;;9.50;;
65533;SDS011;53640;55.838;37.184;2023-09-19T07:19:13;14.30;;;9.32;;
65533;SDS011;53640;55.838;37.184;2023-09-19T07:21:41;14.77;;;9.60;;
65533;SDS011;53640;55.838;37.184;2023-09-19T07:24:08;10.73;;;9.13;;
65533;SDS011;53640;55.838;37.184;2023-09-19T07:26:34;8.27;;;7.25;;
65533;SDS011;53640;55.838;37.184;2023-09-19T07:29:00;11.68;;;8.63;;
65533;SDS011;53640;55.838;37.184;2023-09-19T07:31:29;11.40;;;8.90;;
65533;SDS011;53640;55.838;37.184;2023-09-19T07:33:56;19.95;;;12.30;;
65533;SDS011;53640;55.838;37.184;2023-09-19T07:36:23;13.27;;;9.20;;
65533;SDS011;53640;55.838;37.184;2023-09-19T07:38:50;12.27;;;9.38;;
65533;SDS011;53640;55.838;37.184;2023-09-19T07:41:16;16.30;;;9.73;;
65533;SDS011;53640;55.838;37.184;2023-09-19T07:43:42;14.23;;;9.35;;
65533;SDS011;53640;55.838;37.184;2023-09-19T07:46:09;9.90;;;7.28;;
65533;SDS011;53640;55.838;37.184;2023-09-19T07:48:37;14.05;;;9.55;;
65533;SDS011;53640;55.838;37.184;2023-09-19T07:51:05;11.85;;;7.50;;
65533;SDS011;53640;55.838;37.184;2023-09-19T07:53:35;9.30;;;7.82;;
65533;SDS011;53640;55.838;37.184;2023-09-19T07:56:05;13.00;;;9.13;;
65533;SDS011;53640;55.838;37.184;2023-09-19T07:58:34;12.35;;;8.80;;
65533;SDS011;53640;55.838;37.184;2023-09-19T08:01:05;13.27;;;8.20;;
65533;SDS011;53640;55.838;37.184;2023-09-19T08:03:39;14.07;;;9.63;;
65533;SDS011;53640;55.838;37.184;2023-09-19T08:06:09;11.77;;;8.63;;
65533;SDS011;53640;55.838;37.184;2023-09-19T08:08:36;12.02;;;7.97;;
65533;SDS011;53640;55.838;37.184;2023-09-19T08:11:03;12.55;;;8.95;;
65533;SDS011;53640;55.838;37.184;2023-09-19T08:13:40;13.50;;;9.43;;
65533;SDS011;53640;55.838;37.184;2023-09-19T08:16:09;18.98;;;10.52;;
65533;SDS011;53640;55.838;37.184;2023-09-19T08:18:36;9.95;;;8.07;;
65533;SDS011;53640;55.838;37.184;2023-09-19T08:21:06;9.68;;;7.68;;
65533;SDS011;53640;55.838;37.184;2023-09-19T08:23:37;12.35;;;9.35;;
65533;SDS011;53640;55.838;37.184;2023-09-19T08:26:04;11.57;;;8.15;;
65533;SDS011;53640;55.838;37.184;2023-09-19T08:28:34;13.52;;;8.77;;
65533;SDS011;53640;55.838;37.184;2023-09-19T08:31:05;12.57;;;8.00;;
65533;SDS011;53640;55.838;37.184;2023-09-19T08:33:35;8.63;;;7.10;;
65533;SDS011;53640;55.838;37.184;2023-09-19T08:36:02;16.65;;;8.88;;
65533;SDS011;53640;55.838;37.184;2023-09-19T08:38:33;10.10;;;7.72;;
65533;SDS011;53640;55.838;37.184;2023-09-19T08:41:04;14.40;;;10.35;;
65533;SDS011;53640;55.838;37.184;2023-09-19T08:43:32;15.73;;;10.93;;
65533;SDS011;53640;55.838;37.184;2023-09-19T08:46:11;14.00;;;10.15;;
65533;SDS011;53640;55.838;37.184;2023-09-19T08:49:00;13.02;;;8.63;;
65533;SDS011;53640;55.838;37.184;2023-09-19T08:54:26;13.93;;;8.63;;
65533;SDS011;53640;55.838;37.184;2023-09-19T08:57:00;12.73;;;8.35;;
65533;SDS011;53640;55.838;37.184;2023-09-19T08:59:37;11.07;;;7.70;;
65533;SDS011;53640;55.838;37.184;2023-09-19T09:02:11;14.18;;;9.20;;
65533;SDS011;53640;55.838;37.184;2023-09-19T09:04:42;14.40;;;10.68;;
65533;SDS011;53640;55.838;37.184;2023-09-19T09:07:13;14.18;;;10.07;;
65533;SDS011;53640;55.838;37.184;2023-09-19T09:09:40;18.35;;;10.25;;
65533;SDS011;53640;55.838;37.184;2023-09-19T09:12:13;12.63;;;9.98;;
65533;SDS011;53640;55.838;37.184;2023-09-19T09:14:46;12.80;;;10.03;;
65533;SDS011;53640;55.838;37.184;2023-09-19T09:17:14;19.33;;;10.70;;
65533;SDS011;53640;55.838;37.184;2023-09-19T09:19:41;15.73;;;11.48;;
65533;SDS011;53640;55.838;37.184;2023-09-19T09:22:08;16.90;;;12.10;;
65533;SDS011;53640;55.838;37.184;2023-09-19T09:24:36;16.95;;;11.63;;
65533;SDS011;53640;55.838;37.184;2023-09-19T09:27:05;12.68;;;9.35;;
65533;SDS011;53640;55.838;37.184;2023-09-19T09:29:46;11.40;;;8.70;;
65533;SDS011;53640;55.838;37.184;2023-09-19T09:32:26;11.23;;;8.52;;
65533;SDS011;53640;55.838;37.184;2023-09-19T09:34:55;27.55;;;13.73;;
65533;SDS011;53640;55.838;37.184;2023-09-19T09:37:23;18.40;;;11.15;;
65533;SDS011;53640;55.838;37.184;2023-09-19T09:39:53;16.70;;;10.10;;
65533;SDS011;53640;55.838;37.184;2023-09-19T09:42:32;10.02;;;7.88;;
65533;SDS011;53640;55.838;37.184;2023-09-19T09:45:14;16.83;;;10.48;;
65533;SDS011;53640;55.838;37.184;2023-09-19T09:47:43;13.73;;;10.50;;
65533;SDS011;53640;55.838;37.184;2023-09-19T09:50:31;17.90;;;12.40;;
65533;SDS011;53640;55.838;37.184;2023-09-19T09:56:03;12.65;;;8.52;;
65533;SDS011;53640;55.838;37.184;2023-09-19T09:58:33;14.93;;;9.88;;
65533;SDS011;53640;55.838;37.184;2023-09-19T10:01:06;17.30;;;10.77;;
65533;SDS011;53640;55.838;37.184;2023-09-19T10:03:39;10.10;;;7.70;;
65533;SDS011;53640;55.838;37.184;2023-09-19T10:06:06;9.02;;;7.35;;
65533;SDS011;53640;55.838;37.184;2023-09-19T10:09:06;9.88;;;7.93;;
65533;SDS011;53640;55.838;37.184;2023-09-19T10:11:46;10.82;;;7.38;;
65533;SDS011;53640;55.838;37.184;2023-09-19T10:14:20;9.27;;;6.53;;
65533;SDS011;53640;55.838;37.184;2023-09-19T10:16:51;12.15;;;8.13;;
65533;SDS011;53640;55.838;37.184;2023-09-19T10:22:13;14.15;;;10.45;;
65533;SDS011;53640;55.838;37.184;2023-09-19T10:24:46;8.95;;;6.55;;
65533;SDS011;53640;55.838;37.184;2023-09-19T10:27:18;16.38;;;9.73;;
65533;SDS011;53640;55.838;37.184;2023-09-19T10:29:46;15.50;;;10.32;;
65533;SDS011;53640;55.838;37.184;2023-09-19T10:32:16;16.20;;;10.10;;
65533;SDS011;53640;55.838;37.184;2023-09-19T10:34:47;11.43;;;8.80;;
65533;SDS011;53640;55.838;37.184;2023-09-19T10:37:18;10.37;;;7.37;;
65533;SDS011;53640;55.838;37.184;2023-09-19T10:39:48;8.77;;;6.93;;
65533;SDS011;53640;55.838;37.184;2023-09-19T10:42:19;11.75;;;7.88;;
65533;SDS011;53640;55.838;37.184;2023-09-19T10:44:50;18.90;;;9.95;;
65533;SDS011;53640;55.838;37.184;2023-09-19T10:47:20;17.70;;;8.90;;
65533;SDS011;53640;55.838;37.184;2023-09-19T10:49:50;9.27;;;7.38;;
65533;SDS011;53640;55.838;37.184;2023-09-19T10:52:17;19.83;;;10.60;;
65533;SDS011;53640;55.838;37.184;2023-09-19T10:54:49;12.77;;;9.13;;
65533;SDS011;53640;55.838;37.184;2023-09-19T10:57:21;9.75;;;7.13;;
65533;SDS011;53640;55.838;37.184;2023-09-19T11:00:06;17.65;;;9.32;;
65533;SDS011;53640;55.838;37.184;2023-09-19T11:05:38;12.98;;;7.90;;
65533;SDS011;53640;55.838;37.184;2023-09-19T11:08:06;8.40;;;6.25;;
65533;SDS011;53640;55.838;37.184;2023-09-19T11:10:47;14.10;;;9.07;;
65533;SDS011;53640;55.838;37.184;2023-09-19T11:13:25;7.72;;;6.63;;
65533;SDS011;53640;55.838;37.184;2023-09-19T11:26:48;8.82;;;6.63;;
65533;SDS011;53640;55.838;37.184;2023-09-19T11:29:28;12.23;;;8.93;;
65533;SDS011;53640;55.838;37.184;2023-09-19T11:31:56;11.57;;;7.45;;
65533;SDS011;53640;55.838;37.184;2023-09-19T11:40:05;13.82;;;7.32;;
65533;SDS011;53640;55.838;37.184;2023-09-19T11:42:46;13.27;;;8.57;;
65533;SDS011;53640;55.838;37.184;2023-09-19T11:48:32;8.85;;;7.43;;
65533;SDS011;53640;55.838;37.184;2023-09-19T11:50:58;20.17;;;8.15;;
65533;SDS011;53640;55.838;37.184;2023-09-19T11:53:30;13.07;;;8.30;;
65533;SDS011;53640;55.838;37.184;2023-09-19T11:55:59;12.95;;;8.38;;
65533;SDS011;53640;55.838;37.184;2023-09-19T11:58:27;11.70;;;7.20;;
65533;SDS011;53640;55.838;37.184;2023-09-19T12:00:55;10.38;;;7.55;;
65533;SDS011;53640;55.838;37.184;2023-09-19T12:03:24;11.02;;;6.65;;
65533;SDS011;53640;55.838;37.184;2023-09-19T12:05:57;13.00;;;7.40;;
65533;SDS011;53640;55.838;37.184;2023-09-19T12:08:24;8.75;;;6.97;;
65533;SDS011;53640;55.838;37.184;2023-09-19T12:10:53;6.97;;;5.53;;
65533;SDS011;53640;55.838;37.184;2023-09-19T12:13:21;7.18;;;5.75;;
65533;SDS011;53640;55.838;37.184;2023-09-19T12:15:47;13.18;;;7.45;;
65533;SDS011;53640;55.838;37.184;2023-09-19T12:18:29;13.35;;;6.88;;
65533;SDS011;53640;55.838;37.184;2023-09-19T12:20:56;8.13;;;6.30;;
65533;SDS011;53640;55.838;37.184;2023-09-19T12:23:24;10.60;;;7.03;;
65533;SDS011;53640;55.838;37.184;2023-09-19T12:25:54;9.88;;;7.45;;
65533;SDS011;53640;55.838;37.184;2023-09-19T12:28:24;11.35;;;7.05;;
65533;SDS011;53640;55.838;37.184;2023-09-19T12:30:52;15.20;;;8.77;;
65533;SDS011;53640;55.838;37.184;2023-09-19T12:33:21;11.00;;;7.22;;
65533;SDS011;53640;55.838;37.184;2023-09-19T12:35:51;11.00;;;7.25;;
65533;SDS011;53640;55.838;37.184;2023-09-19T12:38:26;13.07;;;6.65;;
65533;SDS011;53640;55.838;37.184;2023-09-19T12:40:58;17.15;;;7.57;;
65533;SDS011;53640;55.838;37.184;2023-09-19T12:43:26;15.02;;;7.50;;
65533;SDS011;53640;55.838;37.184;2023-09-19T12:45:58;12.25;;;7.47;;
65533;SDS011;53640;55.838;37.184;2023-09-19T12:48:26;7.55;;;5.40;;
65533;SDS011;53640;55.838;37.184;2023-09-19T12:50:59;7.50;;;5.28;;
65533;SDS011;53640;55.838;37.184;2023-09-19T12:53:56;9.25;;;4.85;;
65533;SDS011;53640;55.838;37.184;2023-09-19T12:56:23;5.50;;;3.60;;
65533;SDS011;53640;55.838;37.184;2023-09-19T13:01:29;4.18;;;3.78;;
65533;SDS011;53640;55.838;37.184;2023-09-19T13:06:52;4.30;;;3.33;;
65533;SDS011;53640;55.838;37.184;2023-09-19T13:09:19;4.00;;;3.55;;
65533;SDS011;53640;55.838;37.184;2023-09-19T13:11:47;3.38;;;3.10;;
65533;SDS011;53640;55.838;37.184;2023-09-19T13:17:03;7.78;;;4.25;;
65533;SDS011;53640;55.838;37.184;2023-09-19T13:19:51;4.22;;;3.85;;
65533;SDS011;53640;55.838;37.184;2023-09-19T13:25:09;4.45;;;3.25;;
65533;SDS011;53640;55.838;37.184;2023-09-19T13:27:55;5.00;;;3.35;;
65533;SDS011;53640;55.838;37.184;2023-09-19T13:30:24;4.38;;;3.58;;
65533;SDS011;53640;55.838;37.184;2023-09-19T13:32:51;3.53;;;3.15;;
65533;SDS011;53640;55.838;37.184;2023-09-19T13:35:35;5.15;;;4.25;;
65533;SDS011;53640;55.838;37.184;2023-09-19T13:38:09;5.57;;;4.05;;
65533;SDS011;53640;55.838;37.184;2023-09-19T13:40:35;6.88;;;4.10;;
65533;SDS011;53640;55.838;37.184;2023-09-19T13:43:02;6.65;;;4.18;;
65533;SDS011;53640;55.838;37.184;2023-09-19T13:45:29;5.78;;;4.25;;
65533;SDS011;53640;55.838;37.184;2023-09-19T13:47:56;4.50;;;4.10;;
65533;SDS011;53640;55.838;37.184;2023-09-19T13:50:23;5.57;;;3.47;;
65533;SDS011;53640;55.838;37.184;2023-09-19T13:52:50;4.63;;;4.18;;
65533;SDS011;53640;55.838;37.184;2023-09-19T13:55:20;5.78;;;4.38;;
65533;SDS011;53640;55.838;37.184;2023-09-19T13:57:47;4.72;;;3.58;;
65533;SDS011;53640;55.838;37.184;2023-09-19T14:00:18;5.93;;;3.72;;
65533;SDS011;53640;55.838;37.184;2023-09-19T14:02:45;4.10;;;3.70;;
65533;SDS011;53640;55.838;37.184;2023-09-19T14:05:12;4.18;;;3.60;;
65533;SDS011;53640;55.838;37.184;2023-09-19T14:07:41;3.60;;;3.30;;
65533;SDS011;53640;55.838;37.184;2023-09-19T14:10:09;7.93;;;4.53;;
65533;SDS011;53640;55.838;37.184;2023-09-19T14:12:39;4.65;;;4.25;;
65533;SDS011;53640;55.838;37.184;2023-09-19T14:15:09;6.00;;;4.13;;
65533;SDS011;53640;55.838;37.184;2023-09-19T14:17:37;5.32;;;3.90;;
65533;SDS011;53640;55.838;37.184;2023-09-19T14:20:13;5.65;;;4.10;;
65533;SDS011;53640;55.838;37.184;2023-09-19T14:22:43;5.65;;;4.70;;
65533;SDS011;53640;55.838;37.184;2023-09-19T14:25:10;7.13;;;4.75;;
65533;SDS011;53640;55.838;37.184;2023-09-19T14:27:37;5.13;;;4.00;;
65533;SDS011;53640;55.838;37.184;2023-09-19T14:30:07;4.88;;;4.30;;
65533;SDS011;53640;55.838;37.184;2023-09-19T14:32:35;4.28;;;3.88;;
65533;SDS011;53640;55.838;37.184;2023-09-19T14:35:02;5.28;;;4.18;;
65533;SDS011;53640;55.838;37.184;2023-09-19T14:37:29;5.20;;;4.30;;
65533;SDS011;53640;55.838;37.184;2023-09-19T14:39:55;4.88;;;3.92;;
65533;SDS011;53640;55.838;37.184;2023-09-19T14:42:21;8.65;;;4.40;;
65533;SDS011;53640;55.838;37.184;2023-09-19T14:44:48;4.60;;;4.10;;
65533;SDS011;53640;55.838;37.184;2023-09-19T14:47:15;5.10;;;4.10;;
65533;SDS011;53640;55.838;37.184;2023-09-19T14:49:42;4.97;;;4.05;;
65533;SDS011;53640;55.838;37.184;2023-09-19T14:52:09;8.65;;;4.75;;
65533;SDS011;53640;55.838;37.184;2023-09-19T14:54:38;7.05;;;4.22;;
65533;SDS011;53640;55.838;37.184;2023-09-19T14:57:07;5.05;;;4.10;;
65533;SDS011;53640;55.838;37.184;2023-09-19T14:59:34;4.40;;;4.00;;
65533;SDS011;53640;55.838;37.184;2023-09-19T15:02:05;5.32;;;4.70;;
65533;SDS011;53640;55.838;37.184;2023-09-19T15:04:33;6.88;;;4.30;;
65533;SDS011;53640;55.838;37.184;2023-09-19T15:06:59;4.90;;;3.92;;
65533;SDS011;53640;55.838;37.184;2023-09-19T15:09:26;9.15;;;4.20;;
65533;SDS011;53640;55.838;37.184;2023-09-19T15:11:52;4.72;;;4.05;;
65533;SDS011;53640;55.838;37.184;2023-09-19T15:14:19;5.00;;;4.03;;
65533;SDS011;53640;55.838;37.184;2023-09-19T15:16:48;4.53;;;3.55;;
65533;SDS011;53640;55.838;37.184;2023-09-19T15:19:14;5.10;;;3.67;;
65533;SDS011;53640;55.838;37.184;2023-09-19T15:21:41;6.60;;;4.15;;
65533;SDS011;53640;55.838;37.184;2023-09-19T15:24:07;4.82;;;3.97;;
65533;SDS011;53640;55.838;37.184;2023-09-19T15:26:37;3.88;;;3.53;;
65533;SDS011;53640;55.838;37.184;2023-09-19T15:29:08;5.65;;;4.20;;
65533;SDS011;53640;55.838;37.184;2023-09-19T15:31:35;5.68;;;4.00;;
65533;SDS011;53640;55.838;37.184;2023-09-19T15:34:04;9.65;;;5.28;;